sensor_id;sensor_type;location;lat;lon;timestamp;P1;durP1;ratioP1;P2;durP2;ratioP2
53267;SDS011;39156;51.176;6.738;2023-06-10T00:01:36;36.25;;;34.05;;
53267;SDS011;39156;51.176;6.738;2023-06-10T00:04:02;37.27;;;35.00;;
53267;SDS011;39156;51.176;6.738;2023-06-10T00:06:28;35.70;;;33.67;;
53267;SDS011;39156;51.176;6.738;2023-06-10T00:09:04;35.53;;;33.42;;
53267;SDS011;39156;51.176;6.738;2023-06-10T00:11:33;34.38;;;32.33;;
53267;SDS011;39156;51.176;6.738;2023-06-10T00:13:59;38.80;;;36.60;;
53267;SDS011;39156;51.176;6.738;2023-06-10T00:16:25;37.13;;;34.60;;
53267;SDS011;39156;51.176;6.738;2023-06-10T00:18:51;35.13;;;33.13;;
53267;SDS011;39156;51.176;6.738;2023-06-10T00:21:17;34.28;;;32.28;;
53267;SDS011;39156;51.176;6.738;2023-06-10T00:23:44;35.65;;;33.45;;
53267;SDS011;39156;51.176;6.738;2023-06-10T00:26:10;38.55;;;35.85;;
53267;SDS011;39156;51.176;6.738;2023-06-10T00:28:35;36.93;;;34.83;;
53267;SDS011;39156;51.176;6.738;2023-06-10T00:31:01;36.97;;;34.87;;
53267;SDS011;39156;51.176;6.738;2023-06-10T00:33:27;36.80;;;34.58;;
53267;SDS011;39156;51.176;6.738;2023-06-10T00:35:53;38.85;;;36.58;;
53267;SDS011;39156;51.176;6.738;2023-06-10T00:38:19;36.10;;;34.00;;
53267;SDS011;39156;51.176;6.738;2023-06-10T00:40:45;37.03;;;34.93;;
53267;SDS011;39156;51.176;6.738;2023-06-10T00:43:11;36.90;;;34.60;;
53267;SDS011;39156;51.176;6.738;2023-06-10T00:45:37;38.30;;;36.00;;
53267;SDS011;39156;51.176;6.738;2023-06-10T00:48:02;37.53;;;35.37;;
53267;SDS011;39156;51.176;6.738;2023-06-10T00:50:29;38.72;;;36.53;;
53267;SDS011;39156;51.176;6.738;2023-06-10T00:52:56;38.45;;;36.25;;
53267;SDS011;39156;51.176;6.738;2023-06-10T00:55:23;37.38;;;35.28;;
53267;SDS011;39156;51.176;6.738;2023-06-10T00:57:49;37.17;;;35.08;;
53267;SDS011;39156;51.176;6.738;2023-06-10T01:00:16;37.17;;;35.08;;
53267;SDS011;39156;51.176;6.738;2023-06-10T01:02:42;40.10;;;37.78;;
53267;SDS011;39156;51.176;6.738;2023-06-10T01:05:08;37.10;;;34.80;;
53267;SDS011;39156;51.176;6.738;2023-06-10T01:10:19;37.15;;;34.80;;
53267;SDS011;39156;51.176;6.738;2023-06-10T01:15:27;38.80;;;36.17;;
53267;SDS011;39156;51.176;6.738;2023-06-10T01:17:57;36.97;;;34.67;;
53267;SDS011;39156;51.176;6.738;2023-06-10T01:20:26;38.58;;;35.85;;
53267;SDS011;39156;51.176;6.738;2023-06-10T01:22:54;38.05;;;35.55;;
53267;SDS011;39156;51.176;6.738;2023-06-10T01:25:22;38.25;;;35.42;;
53267;SDS011;39156;51.176;6.738;2023-06-10T01:27:53;38.55;;;35.85;;
53267;SDS011;39156;51.176;6.738;2023-06-10T01:33:39;35.80;;;33.67;;
53267;SDS011;39156;51.176;6.738;2023-06-10T01:36:11;38.95;;;36.42;;
53267;SDS011;39156;51.176;6.738;2023-06-10T01:38:45;39.45;;;37.10;;
53267;SDS011;39156;51.176;6.738;2023-06-10T01:41:13;39.58;;;36.97;;
53267;SDS011;39156;51.176;6.738;2023-06-10T01:43:42;36.90;;;34.45;;
53267;SDS011;39156;51.176;6.738;2023-06-10T01:46:10;37.55;;;35.35;;
53267;SDS011;39156;51.176;6.738;2023-06-10T01:48:36;38.15;;;35.90;;
53267;SDS011;39156;51.176;6.738;2023-06-10T01:51:02;37.03;;;34.67;;
53267;SDS011;39156;51.176;6.738;2023-06-10T01:53:29;39.88;;;37.55;;
53267;SDS011;39156;51.176;6.738;2023-06-10T01:55:55;37.10;;;34.37;;
53267;SDS011;39156;51.176;6.738;2023-06-10T01:58:20;39.23;;;36.40;;
53267;SDS011;39156;51.176;6.738;2023-06-10T02:00:46;40.63;;;38.23;;
53267;SDS011;39156;51.176;6.738;2023-06-10T02:03:12;38.40;;;36.00;;
53267;SDS011;39156;51.176;6.738;2023-06-10T02:05:38;40.80;;;38.27;;
53267;SDS011;39156;51.176;6.738;2023-06-10T02:08:04;37.40;;;35.20;;
53267;SDS011;39156;51.176;6.738;2023-06-10T02:10:30;40.10;;;37.57;;
53267;SDS011;39156;51.176;6.738;2023-06-10T02:12:55;39.80;;;37.27;;
53267;SDS011;39156;51.176;6.738;2023-06-10T02:15:21;39.40;;;36.97;;
53267;SDS011;39156;51.176;6.738;2023-06-10T02:17:47;38.43;;;36.33;;
53267;SDS011;39156;51.176;6.738;2023-06-10T02:20:15;38.13;;;35.63;;
53267;SDS011;39156;51.176;6.738;2023-06-10T02:22:41;38.90;;;35.47;;
53267;SDS011;39156;51.176;6.738;2023-06-10T02:25:07;38.30;;;35.70;;
53267;SDS011;39156;51.176;6.738;2023-06-10T02:27:33;38.78;;;36.58;;
53267;SDS011;39156;51.176;6.738;2023-06-10T02:29:59;39.73;;;37.43;;
53267;SDS011;39156;51.176;6.738;2023-06-10T02:32:25;40.20;;;37.83;;
53267;SDS011;39156;51.176;6.738;2023-06-10T02:34:50;39.73;;;37.43;;
53267;SDS011;39156;51.176;6.738;2023-06-10T02:37:16;39.33;;;37.03;;
53267;SDS011;39156;51.176;6.738;2023-06-10T02:39:42;39.92;;;37.35;;
53267;SDS011;39156;51.176;6.738;2023-06-10T02:42:08;39.03;;;36.73;;
53267;SDS011;39156;51.176;6.738;2023-06-10T02:47:00;38.80;;;36.60;;
53267;SDS011;39156;51.176;6.738;2023-06-10T02:49:26;40.37;;;38.07;;
53267;SDS011;39156;51.176;6.738;2023-06-10T02:54:19;38.05;;;35.90;;
53267;SDS011;39156;51.176;6.738;2023-06-10T02:56:45;38.55;;;36.33;;
53267;SDS011;39156;51.176;6.738;2023-06-10T02:59:12;40.00;;;37.55;;
53267;SDS011;39156;51.176;6.738;2023-06-10T03:01:39;38.72;;;36.28;;
53267;SDS011;39156;51.176;6.738;2023-06-10T03:04:06;39.40;;;37.10;;
53267;SDS011;39156;51.176;6.738;2023-06-10T03:06:32;42.30;;;39.75;;
53267;SDS011;39156;51.176;6.738;2023-06-10T03:08:59;38.28;;;35.92;;
53267;SDS011;39156;51.176;6.738;2023-06-10T03:11:25;38.30;;;36.10;;
53267;SDS011;39156;51.176;6.738;2023-06-10T03:13:51;37.87;;;35.27;;
53267;SDS011;39156;51.176;6.738;2023-06-10T03:16:18;40.15;;;37.67;;
53267;SDS011;39156;51.176;6.738;2023-06-10T03:18:44;38.40;;;35.97;;
53267;SDS011;39156;51.176;6.738;2023-06-10T03:21:10;39.73;;;37.30;;
53267;SDS011;39156;51.176;6.738;2023-06-10T03:23:36;38.50;;;36.20;;
53267;SDS011;39156;51.176;6.738;2023-06-10T03:26:02;38.25;;;35.85;;
53267;SDS011;39156;51.176;6.738;2023-06-10T03:28:30;39.60;;;36.88;;
53267;SDS011;39156;51.176;6.738;2023-06-10T03:30:56;39.47;;;36.80;;
53267;SDS011;39156;51.176;6.738;2023-06-10T03:33:22;38.63;;;36.33;;
53267;SDS011;39156;51.176;6.738;2023-06-10T03:35:48;38.87;;;36.40;;
53267;SDS011;39156;51.176;6.738;2023-06-10T03:38:13;39.63;;;37.23;;
53267;SDS011;39156;51.176;6.738;2023-06-10T03:40:39;39.03;;;36.63;;
53267;SDS011;39156;51.176;6.738;2023-06-10T03:43:05;38.90;;;36.40;;
53267;SDS011;39156;51.176;6.738;2023-06-10T03:45:31;39.47;;;36.97;;
53267;SDS011;39156;51.176;6.738;2023-06-10T03:47:57;38.97;;;36.42;;
53267;SDS011;39156;51.176;6.738;2023-06-10T03:50:23;39.35;;;36.85;;
53267;SDS011;39156;51.176;6.738;2023-06-10T03:52:49;39.25;;;36.88;;
53267;SDS011;39156;51.176;6.738;2023-06-10T03:55:16;41.38;;;38.53;;
53267;SDS011;39156;51.176;6.738;2023-06-10T03:57:42;39.10;;;36.30;;
53267;SDS011;39156;51.176;6.738;2023-06-10T04:00:08;42.75;;;39.78;;
53267;SDS011;39156;51.176;6.738;2023-06-10T04:02:36;39.25;;;36.65;;
53267;SDS011;39156;51.176;6.738;2023-06-10T04:05:02;38.67;;;36.27;;
53267;SDS011;39156;51.176;6.738;2023-06-10T04:07:29;37.90;;;35.22;;
53267;SDS011;39156;51.176;6.738;2023-06-10T04:09:56;40.53;;;38.03;;
53267;SDS011;39156;51.176;6.738;2023-06-10T04:12:21;38.33;;;35.93;;
53267;SDS011;39156;51.176;6.738;2023-06-10T04:14:47;39.70;;;37.27;;
53267;SDS011;39156;51.176;6.738;2023-06-10T04:17:12;38.07;;;35.87;;
53267;SDS011;39156;51.176;6.738;2023-06-10T04:19:38;37.27;;;35.00;;
53267;SDS011;39156;51.176;6.738;2023-06-10T04:22:04;36.67;;;34.58;;
53267;SDS011;39156;51.176;6.738;2023-06-10T04:24:30;35.72;;;33.55;;
53267;SDS011;39156;51.176;6.738;2023-06-10T04:26:56;35.85;;;33.50;;
53267;SDS011;39156;51.176;6.738;2023-06-10T04:29:21;36.15;;;33.67;;
53267;SDS011;39156;51.176;6.738;2023-06-10T04:31:47;35.25;;;33.03;;
53267;SDS011;39156;51.176;6.738;2023-06-10T04:36:39;34.85;;;32.15;;
53267;SDS011;39156;51.176;6.738;2023-06-10T04:39:05;34.65;;;32.65;;
53267;SDS011;39156;51.176;6.738;2023-06-10T04:41:31;33.92;;;31.60;;
53267;SDS011;39156;51.176;6.738;2023-06-10T04:43:56;33.45;;;31.27;;
53267;SDS011;39156;51.176;6.738;2023-06-10T04:46:23;34.20;;;32.20;;
53267;SDS011;39156;51.176;6.738;2023-06-10T04:48:49;33.97;;;31.90;;
53267;SDS011;39156;51.176;6.738;2023-06-10T04:53:41;32.40;;;30.53;;
53267;SDS011;39156;51.176;6.738;2023-06-10T04:58:33;33.58;;;31.48;;
53267;SDS011;39156;51.176;6.738;2023-06-10T05:00:59;31.85;;;29.83;;
53267;SDS011;39156;51.176;6.738;2023-06-10T05:05:51;33.15;;;30.30;;
53267;SDS011;39156;51.176;6.738;2023-06-10T05:08:17;35.22;;;31.02;;
53267;SDS011;39156;51.176;6.738;2023-06-10T05:10:43;36.20;;;32.00;;
53267;SDS011;39156;51.176;6.738;2023-06-10T05:13:09;42.00;;;32.80;;
53267;SDS011;39156;51.176;6.738;2023-06-10T05:15:34;44.50;;;32.30;;
53267;SDS011;39156;51.176;6.738;2023-06-10T05:18:01;43.10;;;32.00;;
53267;SDS011;39156;51.176;6.738;2023-06-10T05:20:27;32.83;;;30.35;;
53267;SDS011;39156;51.176;6.738;2023-06-10T05:22:53;31.95;;;29.25;;
53267;SDS011;39156;51.176;6.738;2023-06-10T05:25:19;31.40;;;29.50;;
53267;SDS011;39156;51.176;6.738;2023-06-10T05:27:45;32.50;;;30.15;;
53267;SDS011;39156;51.176;6.738;2023-06-10T05:30:10;31.17;;;29.08;;
53267;SDS011;39156;51.176;6.738;2023-06-10T05:32:36;30.85;;;28.75;;
53267;SDS011;39156;51.176;6.738;2023-06-10T05:35:02;31.77;;;29.17;;
53267;SDS011;39156;51.176;6.738;2023-06-10T05:37:29;32.42;;;29.55;;
53267;SDS011;39156;51.176;6.738;2023-06-10T05:39:55;30.65;;;28.73;;
53267;SDS011;39156;51.176;6.738;2023-06-10T05:42:21;30.45;;;28.73;;
53267;SDS011;39156;51.176;6.738;2023-06-10T05:44:46;29.33;;;27.63;;
53267;SDS011;39156;51.176;6.738;2023-06-10T05:47:12;30.65;;;28.85;;
53267;SDS011;39156;51.176;6.738;2023-06-10T05:49:38;30.13;;;28.38;;
53267;SDS011;39156;51.176;6.738;2023-06-10T05:52:04;30.58;;;28.48;;
53267;SDS011;39156;51.176;6.738;2023-06-10T05:54:30;30.65;;;28.65;;
53267;SDS011;39156;51.176;6.738;2023-06-10T05:56:56;29.70;;;27.77;;
53267;SDS011;39156;51.176;6.738;2023-06-10T05:59:21;29.75;;;27.63;;
53267;SDS011;39156;51.176;6.738;2023-06-10T06:01:50;29.50;;;27.70;;
53267;SDS011;39156;51.176;6.738;2023-06-10T06:04:16;29.27;;;27.05;;
53267;SDS011;39156;51.176;6.738;2023-06-10T06:06:41;29.40;;;27.70;;
53267;SDS011;39156;51.176;6.738;2023-06-10T06:09:07;28.15;;;26.38;;
53267;SDS011;39156;51.176;6.738;2023-06-10T06:11:33;29.58;;;27.75;;
53267;SDS011;39156;51.176;6.738;2023-06-10T06:14:00;28.55;;;26.50;;
53267;SDS011;39156;51.176;6.738;2023-06-10T06:16:25;28.85;;;27.05;;
53267;SDS011;39156;51.176;6.738;2023-06-10T06:18:51;28.40;;;26.70;;
53267;SDS011;39156;51.176;6.738;2023-06-10T06:21:17;28.65;;;26.92;;
53267;SDS011;39156;51.176;6.738;2023-06-10T06:23:42;28.85;;;26.70;;
53267;SDS011;39156;51.176;6.738;2023-06-10T06:26:08;27.65;;;25.70;;
53267;SDS011;39156;51.176;6.738;2023-06-10T06:28:34;28.05;;;26.45;;
53267;SDS011;39156;51.176;6.738;2023-06-10T06:31:00;28.25;;;26.48;;
53267;SDS011;39156;51.176;6.738;2023-06-10T06:33:26;27.25;;;25.73;;
53267;SDS011;39156;51.176;6.738;2023-06-10T06:35:51;27.75;;;26.05;;
53267;SDS011;39156;51.176;6.738;2023-06-10T06:38:17;28.90;;;27.20;;
53267;SDS011;39156;51.176;6.738;2023-06-10T06:40:43;27.85;;;26.02;;
53267;SDS011;39156;51.176;6.738;2023-06-10T06:43:08;27.40;;;25.65;;
53267;SDS011;39156;51.176;6.738;2023-06-10T06:45:34;26.95;;;25.45;;
53267;SDS011;39156;51.176;6.738;2023-06-10T06:48:00;27.35;;;25.85;;
53267;SDS011;39156;51.176;6.738;2023-06-10T06:50:26;27.20;;;25.55;;
53267;SDS011;39156;51.176;6.738;2023-06-10T06:52:51;27.17;;;25.58;;
53267;SDS011;39156;51.176;6.738;2023-06-10T06:55:17;25.98;;;24.38;;
53267;SDS011;39156;51.176;6.738;2023-06-10T06:57:43;26.00;;;24.30;;
53267;SDS011;39156;51.176;6.738;2023-06-10T07:00:09;26.30;;;24.80;;
53267;SDS011;39156;51.176;6.738;2023-06-10T07:02:35;26.67;;;24.98;;
53267;SDS011;39156;51.176;6.738;2023-06-10T07:05:01;25.88;;;24.40;;
53267;SDS011;39156;51.176;6.738;2023-06-10T07:07:27;26.35;;;24.75;;
53267;SDS011;39156;51.176;6.738;2023-06-10T07:09:52;26.02;;;24.52;;
53267;SDS011;39156;51.176;6.738;2023-06-10T07:12:18;26.20;;;24.65;;
53267;SDS011;39156;51.176;6.738;2023-06-10T07:14:44;26.48;;;24.67;;
53267;SDS011;39156;51.176;6.738;2023-06-10T07:17:10;25.88;;;24.35;;
53267;SDS011;39156;51.176;6.738;2023-06-10T07:19:35;26.05;;;24.65;;
53267;SDS011;39156;51.176;6.738;2023-06-10T07:22:01;26.92;;;25.42;;
53267;SDS011;39156;51.176;6.738;2023-06-10T07:24:27;26.40;;;24.52;;
53267;SDS011;39156;51.176;6.738;2023-06-10T07:26:53;26.40;;;24.48;;
53267;SDS011;39156;51.176;6.738;2023-06-10T07:29:18;26.33;;;24.60;;
53267;SDS011;39156;51.176;6.738;2023-06-10T07:31:44;25.70;;;23.92;;
53267;SDS011;39156;51.176;6.738;2023-06-10T07:34:10;26.73;;;25.10;;
53267;SDS011;39156;51.176;6.738;2023-06-10T07:36:35;26.60;;;25.10;;
53267;SDS011;39156;51.176;6.738;2023-06-10T07:39:01;26.65;;;24.88;;
53267;SDS011;39156;51.176;6.738;2023-06-10T07:41:27;25.42;;;23.95;;
53267;SDS011;39156;51.176;6.738;2023-06-10T07:43:53;25.08;;;23.58;;
53267;SDS011;39156;51.176;6.738;2023-06-10T07:46:22;25.35;;;23.95;;
53267;SDS011;39156;51.176;6.738;2023-06-10T07:48:48;25.42;;;24.02;;
53267;SDS011;39156;51.176;6.738;2023-06-10T07:51:15;25.02;;;23.52;;
53267;SDS011;39156;51.176;6.738;2023-06-10T07:53:41;24.90;;;23.50;;
53267;SDS011;39156;51.176;6.738;2023-06-10T07:56:07;26.00;;;24.40;;
53267;SDS011;39156;51.176;6.738;2023-06-10T07:58:33;26.15;;;24.50;;
53267;SDS011;39156;51.176;6.738;2023-06-10T08:00:59;25.08;;;23.67;;
53267;SDS011;39156;51.176;6.738;2023-06-10T08:03:25;25.15;;;23.42;;
53267;SDS011;39156;51.176;6.738;2023-06-10T08:05:50;24.70;;;23.20;;
53267;SDS011;39156;51.176;6.738;2023-06-10T08:08:16;24.65;;;23.13;;
53267;SDS011;39156;51.176;6.738;2023-06-10T08:10:42;25.45;;;23.70;;
53267;SDS011;39156;51.176;6.738;2023-06-10T08:13:08;27.63;;;25.98;;
53267;SDS011;39156;51.176;6.738;2023-06-10T08:15:34;24.38;;;22.92;;
53267;SDS011;39156;51.176;6.738;2023-06-10T08:17:59;26.73;;;25.25;;
53267;SDS011;39156;51.176;6.738;2023-06-10T08:20:25;24.77;;;23.13;;
53267;SDS011;39156;51.176;6.738;2023-06-10T08:22:51;25.40;;;23.90;;
53267;SDS011;39156;51.176;6.738;2023-06-10T08:25:16;24.05;;;22.67;;
53267;SDS011;39156;51.176;6.738;2023-06-10T08:27:42;24.95;;;23.17;;
53267;SDS011;39156;51.176;6.738;2023-06-10T08:30:08;26.85;;;24.90;;
53267;SDS011;39156;51.176;6.738;2023-06-10T08:32:35;25.60;;;23.95;;
53267;SDS011;39156;51.176;6.738;2023-06-10T08:35:02;25.10;;;23.70;;
53267;SDS011;39156;51.176;6.738;2023-06-10T08:37:28;28.60;;;26.65;;
53267;SDS011;39156;51.176;6.738;2023-06-10T08:39:54;24.70;;;23.05;;
53267;SDS011;39156;51.176;6.738;2023-06-10T08:42:25;25.75;;;24.17;;
53267;SDS011;39156;51.176;6.738;2023-06-10T08:44:58;25.20;;;23.80;;
53267;SDS011;39156;51.176;6.738;2023-06-10T08:47:27;25.35;;;23.85;;
53267;SDS011;39156;51.176;6.738;2023-06-10T08:49:56;24.83;;;23.42;;
53267;SDS011;39156;51.176;6.738;2023-06-10T08:52:28;24.80;;;23.30;;
53267;SDS011;39156;51.176;6.738;2023-06-10T08:55:05;26.08;;;24.52;;
53267;SDS011;39156;51.176;6.738;2023-06-10T08:57:59;25.10;;;23.60;;
53267;SDS011;39156;51.176;6.738;2023-06-10T09:00:28;25.92;;;24.40;;
53267;SDS011;39156;51.176;6.738;2023-06-10T09:02:55;25.15;;;23.45;;
53267;SDS011;39156;51.176;6.738;2023-06-10T09:05:23;25.55;;;24.05;;
53267;SDS011;39156;51.176;6.738;2023-06-10T09:07:52;25.30;;;23.63;;
53267;SDS011;39156;51.176;6.738;2023-06-10T09:10:18;26.20;;;24.60;;
53267;SDS011;39156;51.176;6.738;2023-06-10T09:12:44;25.02;;;23.38;;
53267;SDS011;39156;51.176;6.738;2023-06-10T09:15:10;24.60;;;23.20;;
53267;SDS011;39156;51.176;6.738;2023-06-10T09:17:37;24.55;;;23.05;;
53267;SDS011;39156;51.176;6.738;2023-06-10T09:20:05;24.35;;;22.85;;
53267;SDS011;39156;51.176;6.738;2023-06-10T09:22:33;23.65;;;22.35;;
53267;SDS011;39156;51.176;6.738;2023-06-10T09:25:05;23.92;;;22.52;;
53267;SDS011;39156;51.176;6.738;2023-06-10T09:27:49;25.77;;;24.10;;
53267;SDS011;39156;51.176;6.738;2023-06-10T09:30:29;26.10;;;24.50;;
53267;SDS011;39156;51.176;6.738;2023-06-10T09:33:02;25.10;;;23.67;;
53267;SDS011;39156;51.176;6.738;2023-06-10T09:35:47;24.90;;;23.50;;
53267;SDS011;39156;51.176;6.738;2023-06-10T09:38:15;26.63;;;25.02;;
53267;SDS011;39156;51.176;6.738;2023-06-10T09:40:53;25.73;;;24.13;;
53267;SDS011;39156;51.176;6.738;2023-06-10T09:43:20;25.52;;;24.02;;
53267;SDS011;39156;51.176;6.738;2023-06-10T09:45:50;25.58;;;23.85;;
53267;SDS011;39156;51.176;6.738;2023-06-10T09:48:18;24.05;;;22.65;;
53267;SDS011;39156;51.176;6.738;2023-06-10T09:50:44;25.45;;;23.85;;
53267;SDS011;39156;51.176;6.738;2023-06-10T09:53:11;25.70;;;24.00;;
53267;SDS011;39156;51.176;6.738;2023-06-10T09:55:40;25.73;;;23.88;;
53267;SDS011;39156;51.176;6.738;2023-06-10T09:58:07;24.75;;;23.25;;
53267;SDS011;39156;51.176;6.738;2023-06-10T10:00:33;25.60;;;24.20;;
53267;SDS011;39156;51.176;6.738;2023-06-10T10:02:59;26.92;;;25.33;;
53267;SDS011;39156;51.176;6.738;2023-06-10T10:05:26;26.13;;;24.52;;
53267;SDS011;39156;51.176;6.738;2023-06-10T10:07:52;26.25;;;24.65;;
53267;SDS011;39156;51.176;6.738;2023-06-10T10:10:19;26.08;;;24.50;;
53267;SDS011;39156;51.176;6.738;2023-06-10T10:12:47;26.77;;;24.92;;
53267;SDS011;39156;51.176;6.738;2023-06-10T10:15:13;27.15;;;25.45;;
53267;SDS011;39156;51.176;6.738;2023-06-10T10:17:44;27.33;;;25.63;;
53267;SDS011;39156;51.176;6.738;2023-06-10T10:20:17;27.98;;;26.35;;
53267;SDS011;39156;51.176;6.738;2023-06-10T10:22:49;27.27;;;25.63;;
53267;SDS011;39156;51.176;6.738;2023-06-10T10:25:26;28.33;;;26.83;;
53267;SDS011;39156;51.176;6.738;2023-06-10T10:30:37;29.92;;;28.13;;
53267;SDS011;39156;51.176;6.738;2023-06-10T10:33:09;28.30;;;26.63;;
53267;SDS011;39156;51.176;6.738;2023-06-10T10:35:39;29.60;;;27.90;;
53267;SDS011;39156;51.176;6.738;2023-06-10T10:38:05;29.40;;;27.30;;
53267;SDS011;39156;51.176;6.738;2023-06-10T10:40:31;29.30;;;27.60;;
53267;SDS011;39156;51.176;6.738;2023-06-10T10:42:58;29.35;;;27.55;;
53267;SDS011;39156;51.176;6.738;2023-06-10T10:45:26;29.65;;;27.73;;
53267;SDS011;39156;51.176;6.738;2023-06-10T10:47:53;30.27;;;28.58;;
53267;SDS011;39156;51.176;6.738;2023-06-10T10:50:21;29.40;;;27.48;;
53267;SDS011;39156;51.176;6.738;2023-06-10T10:52:54;29.17;;;27.48;;
53267;SDS011;39156;51.176;6.738;2023-06-10T10:55:23;29.80;;;27.92;;
53267;SDS011;39156;51.176;6.738;2023-06-10T10:57:54;29.30;;;27.60;;
53267;SDS011;39156;51.176;6.738;2023-06-10T11:00:25;29.10;;;27.27;;
53267;SDS011;39156;51.176;6.738;2023-06-10T11:05:46;29.70;;;27.77;;
53267;SDS011;39156;51.176;6.738;2023-06-10T11:08:14;29.60;;;27.80;;
53267;SDS011;39156;51.176;6.738;2023-06-10T11:10:50;29.98;;;28.05;;
53267;SDS011;39156;51.176;6.738;2023-06-10T11:13:19;29.95;;;28.15;;
53267;SDS011;39156;51.176;6.738;2023-06-10T11:15:49;30.65;;;28.85;;
53267;SDS011;39156;51.176;6.738;2023-06-10T11:18:28;30.15;;;28.35;;
53267;SDS011;39156;51.176;6.738;2023-06-10T11:21:03;29.48;;;27.85;;
53267;SDS011;39156;51.176;6.738;2023-06-10T11:26:43;30.88;;;28.85;;
53267;SDS011;39156;51.176;6.738;2023-06-10T11:31:18;31.17;;;29.38;;
53267;SDS011;39156;51.176;6.738;2023-06-10T11:33:46;30.08;;;28.38;;
53267;SDS011;39156;51.176;6.738;2023-06-10T11:36:13;31.15;;;29.15;;
53267;SDS011;39156;51.176;6.738;2023-06-10T11:38:43;31.17;;;28.90;;
53267;SDS011;39156;51.176;6.738;2023-06-10T11:41:13;30.10;;;28.50;;
53267;SDS011;39156;51.176;6.738;2023-06-10T11:43:43;30.20;;;28.38;;
53267;SDS011;39156;51.176;6.738;2023-06-10T11:46:10;30.90;;;29.17;;
53267;SDS011;39156;51.176;6.738;2023-06-10T11:48:36;29.95;;;28.25;;
53267;SDS011;39156;51.176;6.738;2023-06-10T11:51:06;31.02;;;29.30;;
53267;SDS011;39156;51.176;6.738;2023-06-10T11:53:32;30.00;;;28.33;;
53267;SDS011;39156;51.176;6.738;2023-06-10T11:55:59;31.15;;;29.42;;
53267;SDS011;39156;51.176;6.738;2023-06-10T11:58:24;30.48;;;28.67;;
53267;SDS011;39156;51.176;6.738;2023-06-10T12:00:51;31.33;;;29.35;;
53267;SDS011;39156;51.176;6.738;2023-06-10T12:03:19;30.60;;;28.83;;
53267;SDS011;39156;51.176;6.738;2023-06-10T12:08:27;31.02;;;29.05;;
53267;SDS011;39156;51.176;6.738;2023-06-10T12:10:54;30.75;;;29.05;;
53267;SDS011;39156;51.176;6.738;2023-06-10T12:13:21;31.02;;;29.20;;
53267;SDS011;39156;51.176;6.738;2023-06-10T12:15:49;30.90;;;29.10;;
53267;SDS011;39156;51.176;6.738;2023-06-10T12:18:19;31.88;;;29.77;;
53267;SDS011;39156;51.176;6.738;2023-06-10T12:20:46;31.60;;;29.45;;
53267;SDS011;39156;51.176;6.738;2023-06-10T12:23:12;32.40;;;30.45;;
53267;SDS011;39156;51.176;6.738;2023-06-10T12:25:49;31.88;;;30.05;;
53267;SDS011;39156;51.176;6.738;2023-06-10T12:28:22;31.80;;;29.75;;
53267;SDS011;39156;51.176;6.738;2023-06-10T12:30:48;32.13;;;30.05;;
53267;SDS011;39156;51.176;6.738;2023-06-10T12:33:18;31.30;;;29.23;;
53267;SDS011;39156;51.176;6.738;2023-06-10T12:35:48;31.63;;;29.73;;
53267;SDS011;39156;51.176;6.738;2023-06-10T12:38:22;30.98;;;29.25;;
53267;SDS011;39156;51.176;6.738;2023-06-10T12:41:02;30.83;;;28.92;;
53267;SDS011;39156;51.176;6.738;2023-06-10T12:43:30;31.17;;;29.27;;
53267;SDS011;39156;51.176;6.738;2023-06-10T12:46:08;31.02;;;29.17;;
53267;SDS011;39156;51.176;6.738;2023-06-10T12:48:37;31.85;;;29.85;;
53267;SDS011;39156;51.176;6.738;2023-06-10T12:51:16;31.98;;;29.98;;
53267;SDS011;39156;51.176;6.738;2023-06-10T12:53:43;33.10;;;31.05;;
53267;SDS011;39156;51.176;6.738;2023-06-10T12:56:09;32.58;;;30.67;;
53267;SDS011;39156;51.176;6.738;2023-06-10T13:01:00;32.35;;;30.25;;
53267;SDS011;39156;51.176;6.738;2023-06-10T13:05:52;32.55;;;30.65;;
53267;SDS011;39156;51.176;6.738;2023-06-10T13:10:43;31.95;;;29.95;;
53267;SDS011;39156;51.176;6.738;2023-06-10T13:15:34;32.13;;;30.23;;
53267;SDS011;39156;51.176;6.738;2023-06-10T13:18:03;32.33;;;30.08;;
53267;SDS011;39156;51.176;6.738;2023-06-10T13:20:29;32.00;;;30.00;;
53267;SDS011;39156;51.176;6.738;2023-06-10T13:25:21;30.75;;;28.80;;
53267;SDS011;39156;51.176;6.738;2023-06-10T13:27:48;30.58;;;28.80;;
53267;SDS011;39156;51.176;6.738;2023-06-10T13:30:13;30.02;;;28.35;;
53267;SDS011;39156;51.176;6.738;2023-06-10T13:32:39;31.15;;;29.42;;
53267;SDS011;39156;51.176;6.738;2023-06-10T13:35:05;30.83;;;29.00;;
53267;SDS011;39156;51.176;6.738;2023-06-10T13:37:32;30.05;;;28.35;;
53267;SDS011;39156;51.176;6.738;2023-06-10T13:39:58;29.85;;;27.92;;
53267;SDS011;39156;51.176;6.738;2023-06-10T13:42:24;30.85;;;29.05;;
53267;SDS011;39156;51.176;6.738;2023-06-10T13:44:54;30.80;;;29.00;;
53267;SDS011;39156;51.176;6.738;2023-06-10T13:47:19;30.35;;;28.48;;
53267;SDS011;39156;51.176;6.738;2023-06-10T13:49:45;29.83;;;28.08;;
53267;SDS011;39156;51.176;6.738;2023-06-10T13:52:11;30.45;;;28.55;;
53267;SDS011;39156;51.176;6.738;2023-06-10T13:54:37;30.45;;;28.48;;
53267;SDS011;39156;51.176;6.738;2023-06-10T13:57:02;30.92;;;29.15;;
53267;SDS011;39156;51.176;6.738;2023-06-10T13:59:29;30.77;;;29.00;;
53267;SDS011;39156;51.176;6.738;2023-06-10T14:01:54;31.15;;;29.33;;
53267;SDS011;39156;51.176;6.738;2023-06-10T14:04:21;31.38;;;29.60;;
53267;SDS011;39156;51.176;6.738;2023-06-10T14:06:47;31.23;;;29.33;;
53267;SDS011;39156;51.176;6.738;2023-06-10T14:09:14;31.58;;;29.50;;
53267;SDS011;39156;51.176;6.738;2023-06-10T14:11:41;30.15;;;28.42;;
53267;SDS011;39156;51.176;6.738;2023-06-10T14:14:07;29.95;;;28.25;;
53267;SDS011;39156;51.176;6.738;2023-06-10T14:16:32;31.20;;;29.40;;
53267;SDS011;39156;51.176;6.738;2023-06-10T14:18:58;30.92;;;29.02;;
53267;SDS011;39156;51.176;6.738;2023-06-10T14:21:24;31.40;;;29.55;;
53267;SDS011;39156;51.176;6.738;2023-06-10T14:23:49;32.35;;;29.77;;
53267;SDS011;39156;51.176;6.738;2023-06-10T14:26:17;30.70;;;29.00;;
53267;SDS011;39156;51.176;6.738;2023-06-10T14:28:43;31.95;;;29.83;;
53267;SDS011;39156;51.176;6.738;2023-06-10T14:33:34;30.95;;;29.13;;
53267;SDS011;39156;51.176;6.738;2023-06-10T14:36:00;30.95;;;29.15;;
53267;SDS011;39156;51.176;6.738;2023-06-10T14:40:51;31.17;;;29.33;;
53267;SDS011;39156;51.176;6.738;2023-06-10T14:43:18;31.35;;;29.20;;
53267;SDS011;39156;51.176;6.738;2023-06-10T14:48:10;31.73;;;30.03;;
53267;SDS011;39156;51.176;6.738;2023-06-10T14:50:36;30.73;;;28.95;;
53267;SDS011;39156;51.176;6.738;2023-06-10T14:53:06;31.38;;;29.42;;
53267;SDS011;39156;51.176;6.738;2023-06-10T14:57:57;31.98;;;30.08;;
53267;SDS011;39156;51.176;6.738;2023-06-10T15:02:50;31.85;;;30.05;;
53267;SDS011;39156;51.176;6.738;2023-06-10T15:07:44;32.00;;;30.10;;
53267;SDS011;39156;51.176;6.738;2023-06-10T15:10:10;31.08;;;29.38;;
53267;SDS011;39156;51.176;6.738;2023-06-10T15:15:02;31.35;;;29.45;;
53267;SDS011;39156;51.176;6.738;2023-06-10T15:17:28;31.38;;;29.35;;
53267;SDS011;39156;51.176;6.738;2023-06-10T15:22:20;31.88;;;30.08;;
53267;SDS011;39156;51.176;6.738;2023-06-10T15:27:11;31.77;;;29.98;;
53267;SDS011;39156;51.176;6.738;2023-06-10T15:32:03;32.00;;;29.60;;
53267;SDS011;39156;51.176;6.738;2023-06-10T15:34:29;30.77;;;28.80;;